Time;durP1;ratioP1;P1;durP2;ratioP2;P2;SDS_P1;SDS_P2;PMS_P1;PMS_P2;Temp;Humidity;BMP_temperature;BMP_pressure;BME280_temperature;BME280_humidity;BME280_pressure;Samples;Min_cycle;Max_cycle;Signal;HPM_P1;HPM_P2
2022/03/23 00:00:57;;;;;;;14.47;10.37;;;;;;;7.32;100.00;100334.47;4981746;28;20238;-77
2022/03/23 00:03:28;;;;;;;16.23;10.53;;;;;;;7.13;100.00;100336.81;4981019;28;20262;-78
2022/03/23 00:05:56;;;;;;;15.93;10.77;;;;;;;7.40;100.00;100334.22;4979299;28;20203;-78
2022/03/23 00:08:27;;;;;;;16.47;10.70;;;;;;;7.34;100.00;100334.44;4985099;28;20207;-78
2022/03/23 00:10:56;;;;;;;14.50;10.67;;;;;;;7.32;100.00;100336.25;4974919;28;20227;-77
2022/03/23 00:13:25;;;;;;;18.23;11.77;;;;;;;7.04;100.00;100331.81;4988172;28;20250;-78
2022/03/23 00:15:54;;;;;;;17.80;11.87;;;;;;;7.00;100.00;100326.72;4987775;28;20192;-78
2022/03/23 00:18:23;;;;;;;16.17;11.13;;;;;;;6.90;100.00;100334.03;4984846;28;20278;-78
2022/03/23 00:20:53;;;;;;;16.93;11.53;;;;;;;7.06;100.00;100334.44;4982190;28;20211;-77
2022/03/23 00:23:22;;;;;;;16.53;11.07;;;;;;;6.76;100.00;100342.34;4984892;28;20204;-78
2022/03/23 00:25:50;;;;;;;16.13;10.73;;;;;;;6.67;100.00;100342.63;4985873;28;20493;-78
2022/03/23 00:28:21;;;;;;;14.40;10.80;;;;;;;6.45;100.00;100342.34;4988098;28;20188;-77
2022/03/23 00:30:50;;;;;;;16.40;10.80;;;;;;;6.60;100.00;100339.28;4984615;28;20261;-78
2022/03/23 00:33:29;;;;;;;18.03;10.53;;;;;;;6.54;100.00;100336.81;4982068;28;20230;-78
2022/03/23 00:35:59;;;;;;;14.53;10.77;;;;;;;6.55;100.00;100340.31;5013225;28;20195;-77
2022/03/23 00:38:30;;;;;;;15.47;10.50;;;;;;;6.18;100.00;100341.34;5014711;28;20201;-77
2022/03/23 00:40:59;;;;;;;14.30;10.60;;;;;;;6.44;100.00;100340.63;4972920;28;20307;-78
2022/03/23 00:43:28;;;;;;;16.63;10.53;;;;;;;6.37;100.00;100346.09;4970155;28;20267;-79
2022/03/23 00:45:56;;;;;;;16.40;10.67;;;;;;;6.46;100.00;100341.44;4972986;28;20194;-78
2022/03/23 00:48:24;;;;;;;14.60;10.03;;;;;;;6.38;100.00;100343.44;4972951;28;20231;-77
2022/03/23 00:50:53;;;;;;;18.67;10.90;;;;;;;6.33;100.00;100337.44;4967649;28;20283;-77
2022/03/23 00:53:23;;;;;;;15.83;10.67;;;;;;;6.12;100.00;100338.03;4958109;28;20204;-78
2022/03/23 00:55:52;;;;;;;14.83;10.73;;;;;;;6.15;100.00;100341.41;4911181;29;20202;-77
2022/03/23 00:58:20;;;;;;;16.13;10.83;;;;;;;6.05;100.00;100337.31;4931801;28;20212;-77
2022/03/23 01:00:50;;;;;;;14.83;10.60;;;;;;;6.11;100.00;100339.78;4959488;28;20255;-78
2022/03/23 01:03:19;;;;;;;17.27;11.60;;;;;;;6.19;100.00;100339.59;4970252;28;20280;-77
2022/03/23 01:05:48;;;;;;;17.93;11.10;;;;;;;6.11;100.00;100336.28;4955289;28;20258;-78
2022/03/23 01:08:17;;;;;;;16.57;11.60;;;;;;;6.08;100.00;100332.00;4964761;28;20200;-77
2022/03/23 01:10:47;;;;;;;16.23;11.20;;;;;;;6.23;100.00;100334.19;4954479;28;20192;-77
2022/03/23 01:13:15;;;;;;;16.13;11.23;;;;;;;6.39;100.00;100331.16;4954607;28;20204;-77
2022/03/23 01:15:43;;;;;;;16.67;10.90;;;;;;;6.28;100.00;100336.72;4960196;28;20201;-78
2022/03/23 01:18:12;;;;;;;19.57;11.37;;;;;;;6.11;100.00;100334.53;4970019;28;20197;-77
2022/03/23 01:20:41;;;;;;;18.03;11.00;;;;;;;5.86;100.00;100333.41;5010012;28;20201;-78
2022/03/23 01:23:10;;;;;;;17.73;10.90;;;;;;;5.98;100.00;100334.00;5011082;28;20187;-77
2022/03/23 01:25:39;;;;;;;15.77;11.50;;;;;;;5.77;100.00;100326.63;5014188;28;20226;-77
2022/03/23 01:28:10;;;;;;;15.20;10.20;;;;;;;5.81;100.00;100333.53;5011194;28;20191;-78
2022/03/23 01:30:39;;;;;;;15.10;10.60;;;;;;;5.99;100.00;100335.72;5013553;28;20654;-77
2022/03/23 01:33:07;;;;;;;14.53;11.27;;;;;;;5.89;100.00;100339.47;4999483;28;20186;-77
2022/03/23 01:35:35;;;;;;;18.20;11.37;;;;;;;5.75;100.00;100342.44;5008411;28;20198;-78
2022/03/23 01:38:04;;;;;;;16.97;11.43;;;;;;;5.74;100.00;100343.34;4997265;28;20188;-77
2022/03/23 01:40:33;;;;;;;20.17;11.70;;;;;;;5.67;100.00;100338.25;4963101;28;20200;-78
2022/03/23 01:43:04;;;;;;;22.37;11.43;;;;;;;5.75;100.00;100345.06;4980614;28;20243;-77
2022/03/23 01:45:34;;;;;;;17.87;11.87;;;;;;;5.53;100.00;100332.50;4984190;28;20679;-77
2022/03/23 01:48:02;;;;;;;15.83;11.93;;;;;;;5.38;100.00;100331.09;4986181;28;20257;-77
2022/03/23 01:50:31;;;;;;;17.70;11.80;;;;;;;5.27;100.00;100328.72;4983402;28;20319;-77
2022/03/23 01:52:59;;;;;;;16.90;11.50;;;;;;;5.25;100.00;100324.41;4983085;28;20223;-78
2022/03/23 01:55:27;;;;;;;16.80;11.70;;;;;;;5.28;100.00;100333.06;4978704;28;20196;-77
2022/03/23 01:57:56;;;;;;;20.03;13.33;;;;;;;5.28;100.00;100337.47;4986907;28;20196;-78
2022/03/23 02:00:28;;;;;;;18.80;12.37;;;;;;;5.26;100.00;100334.88;4985860;28;20215;-78
2022/03/23 02:02:58;;;;;;;17.47;12.80;;;;;;;5.36;100.00;100335.53;4982919;28;20272;-78
2022/03/23 02:05:27;;;;;;;17.60;12.13;;;;;;;5.44;100.00;100326.56;4972849;28;20280;-77
2022/03/23 02:07:57;;;;;;;20.63;12.20;;;;;;;5.15;100.00;100329.00;4975981;28;20643;-78
2022/03/23 02:10:28;;;;;;;18.60;12.40;;;;;;;5.01;100.00;100324.06;4983444;28;20195;-77
2022/03/23 02:12:56;;;;;;;17.37;12.17;;;;;;;4.81;100.00;100326.25;4980271;28;20204;-77
2022/03/23 02:15:26;;;;;;;16.87;12.40;;;;;;;4.99;100.00;100331.13;4979077;28;20658;-77
2022/03/23 02:17:56;;;;;;;16.67;12.40;;;;;;;4.67;100.00;100329.19;4983474;28;20224;-77
2022/03/23 02:20:27;;;;;;;19.90;12.77;;;;;;;4.63;100.00;100324.88;4977844;28;20192;-77
2022/03/23 02:22:57;;;;;;;19.47;12.73;;;;;;;4.62;100.00;100328.41;4981549;28;20273;-77
2022/03/23 02:25:28;;;;;;;18.53;12.20;;;;;;;4.57;100.00;100331.16;4983151;28;20274;-77
2022/03/23 02:27:58;;;;;;;18.80;12.97;;;;;;;4.44;100.00;100327.06;4981721;28;20191;-77
2022/03/23 02:30:27;;;;;;;18.17;12.40;;;;;;;4.45;100.00;100327.91;4979718;28;20371;-78
2022/03/23 02:32:55;;;;;;;18.67;12.13;;;;;;;4.41;100.00;100332.34;5009989;28;20240;-77
2022/03/23 02:35:25;;;;;;;19.23;12.47;;;;;;;4.17;100.00;100332.84;5006706;28;20202;-77
2022/03/23 02:37:53;;;;;;;18.23;13.20;;;;;;;4.17;100.00;100332.84;4966164;28;20203;-77
2022/03/23 02:40:23;;;;;;;18.73;12.73;;;;;;;4.09;100.00;100330.34;4967318;28;20200;-78
2022/03/23 02:42:52;;;;;;;19.77;12.10;;;;;;;4.04;100.00;100332.19;4973089;28;20226;-77
2022/03/23 02:45:20;;;;;;;17.37;12.60;;;;;;;4.01;100.00;100334.88;4970343;28;20220;-78
2022/03/23 02:47:49;;;;;;;17.40;12.13;;;;;;;3.92;100.00;100337.66;4967170;28;20233;-78
2022/03/23 02:50:18;;;;;;;19.13;12.63;;;;;;;3.82;100.00;100338.72;4975486;28;20224;-77
2022/03/23 03:04:17;;;;;;;19.27;12.80;;;;;;;4.01;100.00;100340.13;5010445;28;20202;-78
2022/03/23 03:06:46;;;;;;;19.80;13.13;;;;;;;4.06;100.00;100345.28;4978499;28;20220;-78
2022/03/23 03:09:16;;;;;;;19.27;12.47;;;;;;;3.99;100.00;100348.00;4979514;28;20261;-78
2022/03/23 03:11:47;;;;;;;18.07;12.80;;;;;;;3.82;100.00;100351.81;4980332;28;20207;-78
2022/03/23 03:14:17;;;;;;;16.27;12.50;;;;;;;3.80;100.00;100345.75;5037584;28;20227;-78
2022/03/23 03:16:47;;;;;;;17.80;11.90;;;;;;;3.70;100.00;100353.75;4980416;28;20208;-78
2022/03/23 03:19:15;;;;;;;22.93;12.70;;;;;;;3.69;100.00;100356.41;4982676;28;20207;-78
2022/03/23 03:21:44;;;;;;;19.87;13.10;;;;;;;3.66;100.00;100359.91;4980324;28;20200;-77
2022/03/23 03:24:13;;;;;;;16.93;12.73;;;;;;;3.57;100.00;100348.72;4976212;28;20555;-78
2022/03/23 03:26:43;;;;;;;19.57;13.30;;;;;;;3.44;100.00;100361.16;4983144;28;20219;-77
2022/03/23 03:29:13;;;;;;;21.17;13.23;;;;;;;3.30;100.00;100356.16;4950424;28;20257;-77
2022/03/23 03:31:42;;;;;;;17.53;12.57;;;;;;;3.40;100.00;100351.63;4984153;28;20245;-77
2022/03/23 03:34:15;;;;;;;22.13;13.00;;;;;;;3.24;100.00;100353.63;4982506;28;20203;-77
2022/03/23 03:36:43;;;;;;;24.80;12.87;;;;;;;3.11;100.00;100357.31;4976943;28;20211;-77
2022/03/23 03:39:11;;;;;;;18.40;12.67;;;;;;;3.28;100.00;100355.31;4980954;28;20192;-77
2022/03/23 03:41:41;;;;;;;22.37;13.63;;;;;;;3.13;100.00;100352.91;4979925;28;20235;-77
2022/03/23 03:44:12;;;;;;;19.43;12.93;;;;;;;3.01;100.00;100366.19;4981926;28;20204;-77
2022/03/23 03:46:45;;;;;;;21.87;13.50;;;;;;;2.95;100.00;100363.63;4917108;28;20218;-77
2022/03/23 03:49:15;;;;;;;18.93;13.30;;;;;;;2.93;100.00;100360.19;5008111;28;20199;-77
2022/03/23 03:51:44;;;;;;;20.87;13.20;;;;;;;2.87;100.00;100366.34;5003730;28;20191;-77
2022/03/23 03:54:12;;;;;;;20.57;13.20;;;;;;;2.86;100.00;100362.00;5004194;28;20202;-77
2022/03/23 03:56:40;;;;;;;21.37;13.23;;;;;;;2.80;100.00;100362.97;4988373;28;20203;-77
2022/03/23 03:59:10;;;;;;;21.23;13.60;;;;;;;2.81;100.00;100374.31;4989069;28;20195;-77
2022/03/23 04:01:39;;;;;;;19.33;12.50;;;;;;;2.83;100.00;100375.13;4990050;28;20206;-77
2022/03/23 04:04:09;;;;;;;17.80;12.87;;;;;;;2.89;100.00;100372.41;4995950;28;20208;-79
2022/03/23 04:06:38;;;;;;;25.90;14.07;;;;;;;2.66;100.00;100375.34;5040748;28;20225;-77
2022/03/23 04:09:07;;;;;;;19.23;13.43;;;;;;;2.74;100.00;100367.41;5047182;28;20201;-77
2022/03/23 04:11:35;;;;;;;19.23;13.50;;;;;;;2.84;100.00;100369.88;5044958;28;20200;-77
2022/03/23 04:14:04;;;;;;;19.93;13.40;;;;;;;2.72;100.00;100364.81;5039567;28;20246;-77
2022/03/23 04:16:32;;;;;;;19.27;13.90;;;;;;;2.65;100.00;100364.91;4984774;28;20204;-77
2022/03/23 04:19:00;;;;;;;19.83;13.33;;;;;;;2.71;100.00;100373.56;4988364;28;20196;-77
2022/03/23 04:21:33;;;;;;;19.73;13.67;;;;;;;2.87;100.00;100380.28;4978683;28;20204;-77
2022/03/23 04:24:03;;;;;;;18.33;12.77;;;;;;;2.85;100.00;100389.06;4972249;28;20210;-77
2022/03/23 04:26:34;;;;;;;20.77;13.23;;;;;;;2.63;100.00;100390.22;4981376;28;20224;-78
2022/03/23 04:29:02;;;;;;;21.27;13.30;;;;;;;2.46;100.00;100391.28;4983450;28;20211;-77
2022/03/23 04:31:32;;;;;;;21.10;13.20;;;;;;;2.59;100.00;100395.47;4982466;28;20200;-77
2022/03/23 04:34:03;;;;;;;19.33;12.73;;;;;;;2.47;100.00;100393.00;4978625;28;20648;-77
2022/03/23 04:36:33;;;;;;;25.33;14.97;;;;;;;2.59;100.00;100395.47;5008891;28;20202;-78
2022/03/23 04:39:02;;;;;;;25.70;13.23;;;;;;;2.59;100.00;100390.22;5012689;28;20198;-77
2022/03/23 04:41:30;;;;;;;19.83;13.53;;;;;;;2.55;100.00;100399.00;5007526;28;20224;-78
2022/03/23 04:43:59;;;;;;;20.97;13.23;;;;;;;2.58;100.00;100398.97;4994458;28;20191;-78
2022/03/23 04:46:27;;;;;;;21.13;13.40;;;;;;;2.65;100.00;100399.78;5009087;28;20222;-77
2022/03/23 04:48:55;;;;;;;20.93;13.17;;;;;;;2.69;100.00;100396.22;5006738;28;20756;-77
2022/03/23 04:51:24;;;;;;;23.30;14.67;;;;;;;2.53;100.00;100400.78;5003512;28;20191;-77
2022/03/23 04:53:53;;;;;;;22.97;13.93;;;;;;;2.61;100.00;100403.31;5002705;28;20211;-77
2022/03/23 04:56:22;;;;;;;20.77;13.17;;;;;;;2.57;100.00;100399.00;4984644;28;20659;-77
2022/03/23 04:58:50;;;;;;;20.57;13.37;;;;;;;2.50;100.00;100403.41;4987316;28;20253;-77
2022/03/23 05:01:19;;;;;;;19.53;13.27;;;;;;;2.63;100.00;100400.69;4984558;28;20188;-77
2022/03/23 05:03:49;;;;;;;18.87;13.50;;;;;;;2.46;100.00;100400.88;4983118;28;20245;-77
2022/03/23 05:06:17;;;;;;;18.70;12.70;;;;;;;2.30;100.00;100402.75;4982789;28;20227;-78
2022/03/23 05:08:46;;;;;;;17.23;12.80;;;;;;;2.38;100.00;100402.69;4984395;28;20192;-77
2022/03/23 05:11:16;;;;;;;22.57;13.97;;;;;;;2.52;100.00;100401.66;4984413;28;20254;-77
2022/03/23 05:13:45;;;;;;;20.73;13.63;;;;;;;2.42;100.00;100407.03;4979751;28;20228;-77
2022/03/23 05:16:14;;;;;;;25.50;13.70;;;;;;;2.35;100.00;100406.22;4981872;28;20203;-77
2022/03/23 05:18:44;;;;;;;23.50;14.00;;;;;;;2.20;100.00;100409.84;4983361;28;20196;-78
2022/03/23 05:21:12;;;;;;;21.73;13.67;;;;;;;2.32;100.00;100411.47;4982906;28;20219;-78
2022/03/23 05:23:42;;;;;;;20.57;14.43;;;;;;;2.31;100.00;100401.88;4982140;28;20340;-78
2022/03/23 05:26:10;;;;;;;21.47;14.20;;;;;;;2.39;100.00;100405.28;4989781;28;20203;-78
2022/03/23 05:28:40;;;;;;;18.83;13.60;;;;;;;2.42;100.00;100414.88;4990002;28;20195;-77
2022/03/23 05:31:09;;;;;;;22.10;14.17;;;;;;;2.26;100.00;100406.31;4991082;28;20202;-77
2022/03/23 05:33:37;;;;;;;23.33;14.03;;;;;;;2.29;100.00;100406.25;4993818;28;20195;-77
2022/03/23 05:36:06;;;;;;;19.10;13.97;;;;;;;2.35;100.00;100405.34;4991004;28;20199;-77
2022/03/23 05:38:35;;;;;;;21.63;14.07;;;;;;;2.45;100.00;100401.75;4988160;28;20262;-77
2022/03/23 05:41:03;;;;;;;19.90;13.40;;;;;;;2.60;100.00;100401.56;4990228;28;20199;-77
2022/03/23 05:43:32;;;;;;;23.53;13.50;;;;;;;2.60;100.00;100398.94;4938548;29;20224;-78
2022/03/23 05:46:02;;;;;;;21.50;13.77;;;;;;;2.62;100.00;100402.44;4957307;28;20208;-77
2022/03/23 05:48:30;;;;;;;21.37;13.23;;;;;;;2.47;100.00;100408.69;4953261;29;20227;-78
2022/03/23 05:51:02;;;;;;;18.73;13.20;;;;;;;2.40;100.00;100411.38;4950419;29;20275;-77
2022/03/23 05:53:33;;;;;;;21.47;13.73;;;;;;;2.55;100.00;100406.84;4947482;29;20203;-77
2022/03/23 05:56:03;;;;;;;22.13;13.43;;;;;;;2.57;100.00;100405.09;4951692;29;20215;-77
2022/03/23 05:58:31;;;;;;;19.23;13.63;;;;;;;2.52;100.00;100412.13;4953382;29;20243;-78
2022/03/23 06:01:22;;;;;;;20.23;14.20;;;;;;;2.46;100.00;100412.19;4958947;29;20196;-77
2022/03/23 06:03:54;;;;;;;22.00;14.63;;;;;;;2.57;100.00;100409.44;4925395;29;20239;-78
2022/03/23 06:06:23;;;;;;;22.53;14.67;;;;;;;2.45;100.00;100414.81;4912516;29;20661;-78
2022/03/23 06:08:52;;;;;;;23.37;14.23;;;;;;;2.37;100.00;100412.28;4957672;28;20200;-78
2022/03/23 06:11:21;;;;;;;22.37;14.73;;;;;;;2.42;100.00;100413.13;4966894;28;20678;-77
2022/03/23 06:13:53;;;;;;;23.53;13.67;;;;;;;2.45;100.00;100423.53;4969437;28;20283;-78
2022/03/23 06:16:23;;;;;;;22.63;13.50;;;;;;;2.39;100.00;100420.09;4921379;28;20198;-78
2022/03/23 06:18:51;;;;;;;23.87;13.87;;;;;;;2.43;100.00;100420.06;4914690;28;20209;-77
2022/03/23 06:21:20;;;;;;;24.40;14.47;;;;;;;2.40;100.00;100419.22;4913952;29;20198;-78
2022/03/23 06:23:49;;;;;;;22.27;14.97;;;;;;;2.53;100.00;100424.31;4936549;28;20212;-77
2022/03/23 06:26:24;;;;;;;24.93;15.00;;;;;;;2.65;100.00;100423.31;4934319;29;20197;-78
2022/03/23 06:28:52;;;;;;;21.17;14.17;;;;;;;2.73;100.00;100429.31;4929719;29;20687;-78
2022/03/23 06:31:22;;;;;;;21.60;15.33;;;;;;;2.97;100.00;100428.16;4935236;28;20216;-77
2022/03/23 06:33:51;;;;;;;23.10;15.20;;;;;;;3.04;100.00;100431.56;4933812;29;20708;-77
2022/03/23 06:36:23;;;;;;;20.47;14.03;;;;;;;3.21;100.00;100431.34;4932040;28;20205;-77
2022/03/23 06:38:51;;;;;;;22.70;14.20;;;;;;;3.35;100.00;100432.00;4934195;29;20197;-78
2022/03/23 06:41:20;;;;;;;21.53;14.67;;;;;;;3.38;100.00;100432.84;4910699;28;20720;-78
2022/03/23 06:43:48;;;;;;;24.57;14.70;;;;;;;3.39;100.00;100437.19;4932013;29;20649;-78
2022/03/23 06:46:17;;;;;;;20.93;13.93;;;;;;;3.44;100.00;100435.38;4971380;28;20224;-78
2022/03/23 06:48:48;;;;;;;22.70;15.47;;;;;;;3.50;100.00;100441.41;4967934;28;20230;-78
2022/03/23 06:51:18;;;;;;;22.73;14.73;;;;;;;3.60;100.00;100435.16;4966894;28;20262;-78
2022/03/23 06:53:47;;;;;;;22.27;14.77;;;;;;;3.60;100.00;100443.88;4966323;28;20208;-78
2022/03/23 06:56:15;;;;;;;27.10;15.83;;;;;;;3.81;100.00;100441.81;4972910;28;20266;-78
2022/03/23 06:58:44;;;;;;;22.57;15.43;;;;;;;3.75;100.00;100442.75;4954522;28;20192;-78
2022/03/23 07:01:12;;;;;;;22.53;15.57;;;;;;;4.00;100.00;100444.09;4967666;28;20195;-78
2022/03/23 07:03:40;;;;;;;22.33;15.33;;;;;;;4.07;100.00;100449.25;4961237;28;20201;-78
2022/03/23 07:06:10;;;;;;;22.33;15.53;;;;;;;4.16;100.00;100444.72;4900607;29;20204;-78
2022/03/23 07:11:24;;;;;;;23.13;15.33;;;;;;;4.50;100.00;100442.34;4952651;28;20219;-78
2022/03/23 07:13:52;;;;;;;23.77;16.70;;;;;;;4.60;100.00;100438.66;4947313;28;20204;-78
2022/03/23 07:16:21;;;;;;;24.53;16.50;;;;;;;4.54;100.00;100441.41;4948462;28;20196;-78
2022/03/23 07:18:50;;;;;;;24.03;15.33;;;;;;;4.79;100.00;100449.66;4952518;29;20207;-78
2022/03/23 07:21:19;;;;;;;21.70;15.30;;;;;;;4.86;100.00;100442.53;4952351;28;20197;-78
2022/03/23 07:23:48;;;;;;;27.83;16.60;;;;;;;4.97;100.00;100442.31;4950492;28;20196;-77
2022/03/23 07:26:18;;;;;;;22.63;16.80;;;;;;;5.07;100.00;100438.59;4949954;28;20205;-78
2022/03/23 07:28:47;;;;;;;26.30;16.93;;;;;;;5.10;100.00;100439.41;4953527;28;20232;-78
2022/03/23 07:31:15;;;;;;;22.90;15.73;;;;;;;5.33;100.00;100438.91;4952062;28;20211;-78
2022/03/23 07:33:43;;;;;;;23.87;16.07;;;;;;;5.58;100.00;100436.59;4952505;28;20200;-78
2022/03/23 07:36:12;;;;;;;24.37;16.90;;;;;;;5.78;100.00;100440.50;4951368;28;20200;-79
2022/03/23 07:38:43;;;;;;;21.90;15.67;;;;;;;6.02;100.00;100445.22;4952144;28;20192;-79
2022/03/23 07:41:12;;;;;;;21.27;15.93;;;;;;;6.14;100.00;100442.28;4954428;28;20188;-78
2022/03/23 07:43:40;;;;;;;24.53;15.87;;;;;;;6.18;100.00;100443.09;4962150;28;20227;-78
2022/03/23 07:46:09;;;;;;;24.03;16.03;;;;;;;6.25;100.00;100442.88;4968766;28;20207;-78
2022/03/23 07:48:37;;;;;;;23.40;16.43;;;;;;;6.47;100.00;100439.69;4961825;28;20228;-78
2022/03/23 07:51:07;;;;;;;24.13;16.10;;;;;;;6.66;100.00;100435.66;4970570;28;20200;-78
2022/03/23 07:53:37;;;;;;;24.70;16.67;;;;;;;6.92;100.00;100436.69;4969973;28;20200;-78
2022/03/23 07:56:08;;;;;;;23.30;16.43;;;;;;;7.12;100.00;100434.34;4969704;28;20229;-79
2022/03/23 07:58:36;;;;;;;23.20;16.13;;;;;;;7.27;100.00;100440.94;4971446;28;20196;-78
2022/03/23 08:01:04;;;;;;;21.90;16.03;;;;;;;7.43;100.00;100432.53;4967579;28;20208;-79
2022/03/23 08:03:33;;;;;;;19.77;15.27;;;;;;;7.51;100.00;100431.41;4968776;28;20230;-79
2022/03/23 08:06:02;;;;;;;26.03;16.83;;;;;;;7.42;100.00;100436.06;4967724;28;20195;-79
2022/03/23 08:08:32;;;;;;;26.43;15.93;;;;;;;7.57;100.00;100434.75;4971176;28;20215;-79
2022/03/23 08:11:01;;;;;;;22.67;15.63;;;;;;;7.84;100.00;100435.66;4925470;29;20196;-79
2022/03/23 08:13:31;;;;;;;23.73;16.23;;;;;;;8.01;100.00;100438.59;4921371;29;20204;-79
2022/03/23 08:16:00;;;;;;;24.13;16.10;;;;;;;8.29;100.00;100438.50;4928265;28;20205;-79
2022/03/23 08:18:28;;;;;;;23.53;15.97;;;;;;;8.45;100.00;100441.53;4924433;29;20204;-79
2022/03/23 08:20:57;;;;;;;22.80;15.00;;;;;;;8.67;100.00;100440.78;4921744;29;20598;-79
2022/03/23 08:23:26;;;;;;;22.43;15.33;;;;;;;8.75;100.00;100438.72;4927350;29;20200;-79
2022/03/23 08:25:54;;;;;;;23.07;15.63;;;;;;;8.95;100.00;100445.94;4924749;29;20343;-79
2022/03/23 08:28:26;;;;;;;23.10;15.00;;;;;;;9.13;100.00;100434.69;4929125;29;20221;-79
2022/03/23 08:30:57;;;;;;;23.77;15.03;;;;;;;9.30;100.00;100436.69;4931623;29;20231;-79
2022/03/23 08:33:26;;;;;;;27.00;15.83;;;;;;;9.51;100.00;100432.34;4928933;28;20256;-79
2022/03/23 08:35:55;;;;;;;20.53;15.40;;;;;;;9.71;100.00;100430.63;4951190;28;20257;-79
2022/03/23 08:38:23;;;;;;;22.87;15.37;;;;;;;9.88;100.00;100431.75;4983716;28;20245;-79
2022/03/23 08:40:52;;;;;;;22.13;15.70;;;;;;;9.98;100.00;100426.00;4971880;28;20719;-79
2022/03/23 08:43:21;;;;;;;24.73;15.50;;;;;;;10.10;100.00;100432.59;4988724;28;20223;-78
2022/03/23 08:45:49;;;;;;;23.43;16.57;;;;;;;10.20;100.00;100433.06;5004314;28;20197;-79
2022/03/23 08:48:19;;;;;;;21.23;16.63;;;;;;;10.39;100.00;100435.81;4997773;28;20215;-79
2022/03/23 08:50:48;;;;;;;22.67;17.10;;;;;;;10.61;100.00;100431.31;5002484;28;20229;-79
2022/03/23 08:53:18;;;;;;;25.73;17.10;;;;;;;10.75;100.00;100441.31;5002697;28;20199;-79
2022/03/23 08:55:47;;;;;;;26.20;17.90;;;;;;;10.88;100.00;100440.69;5000849;28;20199;-79
2022/03/23 08:58:15;;;;;;;21.33;17.27;;;;;;;11.03;100.00;100428.56;5000804;28;20207;-79
2022/03/23 09:00:46;;;;;;;27.17;17.93;;;;;;;11.05;100.00;100439.09;5003477;28;20199;-79
2022/03/23 09:03:14;;;;;;;26.73;18.53;;;;;;;11.23;97.01;100434.75;4998650;28;20199;-79
2022/03/23 09:05:44;;;;;;;26.70;18.67;;;;;;;11.62;91.95;100439.97;5000899;28;20214;-79
2022/03/23 09:08:12;;;;;;;25.17;18.90;;;;;;;11.83;90.52;100438.09;5000659;28;20218;-79
2022/03/23 09:10:41;;;;;;;27.93;18.90;;;;;;;11.97;88.17;100438.31;4993371;28;20195;-79
2022/03/23 09:13:09;;;;;;;30.33;20.90;;;;;;;12.29;86.67;100439.34;5000515;28;20199;-79
2022/03/23 09:15:37;;;;;;;31.73;21.77;;;;;;;12.45;86.83;100444.72;5005272;28;20199;-79
2022/03/23 09:18:06;;;;;;;33.17;21.30;;;;;;;12.53;84.65;100442.53;5000522;28;20229;-79
2022/03/23 09:20:35;;;;;;;29.60;20.27;;;;;;;12.67;83.54;100437.38;5000503;28;20229;-79
2022/03/23 09:23:05;;;;;;;29.80;21.13;;;;;;;12.93;85.95;100433.34;5001372;28;20203;-79
2022/03/23 09:25:34;;;;;;;30.97;21.07;;;;;;;13.20;86.88;100431.03;5000474;28;20280;-79
2022/03/23 09:28:03;;;;;;;32.40;21.93;;;;;;;12.97;84.58;100431.38;5003836;28;20201;-79
2022/03/23 09:30:32;;;;;;;32.27;21.80;;;;;;;13.15;87.71;100431.25;5005722;28;20222;-79
2022/03/23 09:33:00;;;;;;;31.60;21.23;;;;;;;13.40;86.83;100433.44;4993132;28;20256;-79
2022/03/23 09:35:30;;;;;;;28.63;20.87;;;;;;;13.34;83.07;100435.63;5000317;28;20270;-80
2022/03/23 09:37:59;;;;;;;32.50;20.43;;;;;;;13.79;80.44;100434.84;5003004;28;20658;-79
2022/03/23 09:40:31;;;;;;;29.60;20.93;;;;;;;13.98;79.57;100427.50;4996456;28;20203;-79
2022/03/23 09:43:02;;;;;;;31.03;21.10;;;;;;;14.24;75.11;100435.81;5001973;28;20715;-79
2022/03/23 09:45:45;;;;;;;32.60;20.47;;;;;;;14.01;76.78;100438.00;4997925;28;20203;-79
2022/03/23 09:48:20;;;;;;;28.67;19.33;;;;;;;14.44;72.82;100434.63;5002153;28;20260;-79
2022/03/23 09:50:52;;;;;;;25.83;18.57;;;;;;;14.90;67.87;100430.06;5002351;28;20288;-80
2022/03/23 09:53:24;;;;;;;24.80;17.43;;;;;;;15.28;56.71;100426.84;4992634;28;20191;-79
2022/03/23 09:55:54;;;;;;;21.73;16.70;;;;;;;15.39;53.43;100430.53;4992675;28;20223;-79
2022/03/23 09:58:24;;;;;;;18.13;14.57;;;;;;;15.40;47.29;100424.22;5002270;28;20228;-79
2022/03/23 10:00:54;;;;;;;18.23;14.03;;;;;;;15.79;42.13;100424.47;5004175;28;20278;-79
2022/03/23 10:04:06;;;;;;;20.07;13.80;;;;;;;15.79;42.15;100425.31;5005164;28;20199;-79
2022/03/23 10:07:07;;;;;;;21.43;16.17;;;;;;;16.54;43.68;100415.81;4999937;28;20199;-79
2022/03/23 10:10:13;;;;;;;16.90;14.23;;;;;;;16.81;42.61;100414.91;5005143;28;20222;-79
2022/03/23 10:13:32;;;;;;;17.07;14.67;;;;;;;16.20;42.63;100414.56;4992265;28;20267;-79
2022/03/23 10:16:43;;;;;;;20.70;13.47;;;;;;;16.60;41.20;100414.56;5000922;28;20203;-80
2022/03/23 10:19:13;;;;;;;16.87;12.93;;;;;;;17.07;37.70;100410.38;5002034;28;20227;-80
2022/03/23 10:21:42;;;;;;;15.00;12.47;;;;;;;16.69;36.02;100413.91;5002049;28;20199;-80
2022/03/23 10:24:33;;;;;;;14.70;12.10;;;;;;;17.24;34.98;100412.72;4999842;28;20196;-80
2022/03/23 10:27:09;;;;;;;16.00;11.87;;;;;;;17.63;34.04;100406.28;4991902;28;20203;-78
2022/03/23 10:29:44;;;;;;;15.77;11.80;;;;;;;18.05;33.23;100409.50;5002580;28;20252;-79
2022/03/23 10:32:17;;;;;;;15.37;10.83;;;;;;;18.48;31.73;100401.72;5004677;28;20203;-79
2022/03/23 10:34:49;;;;;;;13.60;10.50;;;;;;;18.61;31.28;100406.97;5000183;28;20214;-79
2022/03/23 10:37:25;;;;;;;12.97;10.60;;;;;;;19.02;29.81;100401.09;5002443;28;20207;-79
2022/03/23 10:39:55;;;;;;;10.67;9.57;;;;;;;19.01;29.93;100406.56;5003726;28;20211;-79
2022/03/23 10:42:26;;;;;;;12.17;10.50;;;;;;;18.74;29.18;100401.56;5002436;28;20276;-79
2022/03/23 10:45:04;;;;;;;9.73;8.27;;;;;;;18.76;27.82;100408.50;4995580;28;20229;-80
2022/03/23 10:47:37;;;;;;;8.93;8.03;;;;;;;19.41;25.91;100394.38;5001308;28;20206;-80
2022/03/23 10:50:13;;;;;;;11.80;9.63;;;;;;;19.26;26.19;100392.91;4996406;28;20230;-79
2022/03/23 10:52:51;;;;;;;11.43;9.07;;;;;;;19.05;26.46;100400.84;4997599;28;20207;-80
2022/03/23 10:55:22;;;;;;;12.23;9.70;;;;;;;18.62;26.64;100394.41;4991719;28;20206;-80
2022/03/23 10:58:24;;;;;;;10.83;9.07;;;;;;;19.17;26.52;100397.19;5002937;28;20199;-80
2022/03/23 11:00:59;;;;;;;10.23;8.73;;;;;;;19.78;27.28;100383.31;5001966;28;20240;-79
2022/03/23 11:03:48;;;;;;;10.23;8.43;;;;;;;19.35;25.52;100386.78;4997223;28;20658;-79
2022/03/23 11:06:27;;;;;;;9.13;7.40;;;;;;;19.67;23.89;100381.50;4998459;28;20196;-79
2022/03/23 11:15:45;;;;;;;9.47;8.17;;;;;;;19.98;24.28;100374.44;4999833;28;20238;-79
2022/03/23 11:17:47;;;;;;;11.50;9.70;;;;;;;20.69;26.80;100360.38;4991542;28;20191;-80
2022/03/23 11:20:18;;;;;;;12.60;9.90;;;;;;;20.50;26.19;100366.50;4996353;28;20195;-80
2022/03/23 11:22:46;;;;;;;10.40;9.30;;;;;;;20.14;26.15;100360.53;4996067;28;20203;-80
2022/03/23 11:25:16;;;;;;;11.87;9.87;;;;;;;20.47;26.16;100356.88;4995234;28;20199;-80
2022/03/23 11:27:45;;;;;;;10.70;8.50;;;;;;;20.89;25.30;100358.66;4999964;28;20203;-80
2022/03/23 11:30:16;;;;;;;10.23;8.57;;;;;;;21.42;25.30;100351.19;4992898;28;20230;-79
2022/03/23 11:32:44;;;;;;;13.07;8.30;;;;;;;21.71;25.89;100356.63;5001241;28;20248;-80
2022/03/23 11:35:13;;;;;;;12.45;9.77;;;;;;;21.66;24.48;100358.91;4996386;28;20232;-81
2022/03/23 11:37:46;;;;;;;11.73;7.47;;;;;;;21.27;24.36;100349.88;4989792;28;20199;-80
2022/03/23 11:40:18;;;;;;;11.98;7.90;;;;;;;21.48;23.95;100349.78;5000177;28;20282;-80
2022/03/23 11:42:47;;;;;;;9.70;7.88;;;;;;;21.48;23.86;100347.09;5000533;28;20215;-80
2022/03/23 11:45:16;;;;;;;8.05;7.25;;;;;;;21.83;23.36;100342.03;5000158;28;20207;-80